createdAt,value
2023-03-23T00:01:11.509Z,65
2023-03-23T00:03:07.168Z,66
2023-03-23T00:05:06.733Z,67
2023-03-23T00:07:07.199Z,66
2023-03-23T00:09:09.205Z,66
2023-03-23T00:11:13.718Z,65
2023-03-23T00:13:09.650Z,64
2023-03-23T00:17:06.772Z,65
2023-03-23T00:19:06.828Z,66
2023-03-23T00:21:10.525Z,64
2023-03-23T00:23:06.732Z,63
2023-03-23T00:25:06.818Z,64
2023-03-23T00:29:06.671Z,67
2023-03-23T00:33:06.848Z,66
2023-03-23T00:35:06.670Z,64
2023-03-23T00:37:13.833Z,64
2023-03-23T00:39:06.784Z,64
2023-03-23T00:41:06.674Z,64
2023-03-23T00:43:10.346Z,64
2023-03-23T00:45:10.560Z,64
2023-03-23T00:47:06.737Z,65
2023-03-23T00:49:07.135Z,66
2023-03-23T00:51:10.127Z,66
2023-03-23T00:53:06.788Z,67
2023-03-23T00:55:10.450Z,67
2023-03-23T00:57:12.537Z,67
2023-03-23T00:59:07.162Z,67
2023-03-23T01:01:07.233Z,67
2023-03-23T01:03:07.202Z,67
2023-03-23T01:05:07.220Z,67
2023-03-23T01:07:09.867Z,66
2023-03-23T01:09:13.508Z,67
2023-03-23T01:11:11.357Z,67
2023-03-23T01:13:06.675Z,67
2023-03-23T01:15:07.580Z,67
2023-03-23T01:17:10.350Z,66
2023-03-23T01:19:07.113Z,68
2023-03-23T01:21:07.245Z,68
2023-03-23T01:23:06.489Z,68
2023-03-23T01:25:05.192Z,68
2023-03-23T01:27:06.827Z,68
2023-03-23T01:29:07.285Z,68
2023-03-23T01:31:14.267Z,68
2023-03-23T01:33:07.140Z,68
2023-03-23T01:35:11.510Z,68
2023-03-23T01:37:13.154Z,68
2023-03-23T01:39:05.304Z,68
2023-03-23T01:43:07.163Z,67
2023-03-23T01:45:07.245Z,67
2023-03-23T01:47:06.809Z,67
2023-03-23T01:49:07.223Z,67
2023-03-23T01:51:07.308Z,67
2023-03-23T01:53:07.193Z,67
2023-03-23T01:55:07.264Z,67
2023-03-23T01:57:07.131Z,67
2023-03-23T02:01:07.464Z,67
2023-03-23T02:03:07.172Z,67
2023-03-23T02:05:06.757Z,67
2023-03-23T02:07:09.778Z,68
2023-03-23T02:09:10.338Z,68
2023-03-23T02:11:10.404Z,70
2023-03-23T02:13:06.725Z,69
2023-03-23T02:15:07.227Z,69
2023-03-23T02:17:06.758Z,69
2023-03-23T02:19:07.177Z,68
2023-03-23T02:21:06.555Z,68
2023-03-23T02:23:12.011Z,67
2023-03-23T02:27:12.750Z,70
2023-03-23T02:29:07.219Z,70
2023-03-23T02:31:13.413Z,70
2023-03-23T02:33:10.341Z,70
2023-03-23T02:35:10.410Z,71
2023-03-23T02:37:06.614Z,69
2023-03-23T02:39:10.401Z,69
2023-03-23T02:41:06.764Z,69
2023-03-23T02:45:06.596Z,73
2023-03-23T02:47:06.704Z,73
2023-03-23T02:49:07.238Z,73
2023-03-23T02:51:08.471Z,72
2023-03-23T02:53:10.680Z,71
2023-03-23T02:55:11.704Z,71
2023-03-23T02:57:06.738Z,71
2023-03-23T02:59:06.735Z,71
2023-03-23T03:01:06.797Z,70
2023-03-23T03:03:06.526Z,71
2023-03-23T03:05:07.229Z,71
2023-03-23T03:09:06.826Z,70
2023-03-23T03:11:10.521Z,70
2023-03-23T03:13:11.922Z,71
2023-03-23T03:15:07.255Z,71
2023-03-23T03:17:10.521Z,72
2023-03-23T03:19:06.782Z,72
2023-03-23T03:21:10.470Z,71
2023-03-23T03:23:10.361Z,71
2023-03-23T03:25:17.951Z,73
2023-03-23T03:29:06.712Z,71
2023-03-23T03:31:06.751Z,71
2023-03-23T03:33:06.570Z,71
2023-03-23T03:35:07.298Z,71
2023-03-23T03:37:06.480Z,72
2023-03-23T03:39:08.408Z,71
2023-03-23T03:43:06.751Z,71
2023-03-23T03:45:10.353Z,71
2023-03-23T03:47:06.751Z,71
2023-03-23T03:49:07.158Z,71
2023-03-23T03:51:07.190Z,71
2023-03-23T03:53:07.178Z,72
2023-03-23T03:57:08.835Z,72
2023-03-23T03:59:21.395Z,72
2023-03-23T04:01:06.703Z,72
2023-03-23T04:03:07.596Z,73
2023-03-23T04:05:06.717Z,73
2023-03-23T04:07:10.474Z,73
2023-03-23T04:09:07.748Z,73
2023-03-23T04:13:07.698Z,73
2023-03-23T04:15:06.827Z,74
2023-03-23T04:17:06.719Z,73
2023-03-23T04:19:11.933Z,72
2023-03-23T04:21:07.252Z,72
2023-03-23T04:23:06.805Z,73
2023-03-23T04:25:07.703Z,72
2023-03-23T04:27:08.892Z,72
2023-03-23T04:29:06.711Z,73
2023-03-23T04:31:06.856Z,73
2023-03-23T04:33:07.724Z,72
2023-03-23T04:35:12.612Z,72
2023-03-23T04:37:06.859Z,71
2023-03-23T04:39:06.807Z,71
2023-03-23T04:41:06.514Z,71
2023-03-23T04:43:06.539Z,71
2023-03-23T04:45:04.419Z,70
2023-03-23T04:47:06.701Z,70
2023-03-23T04:49:06.854Z,70
2023-03-23T04:51:06.806Z,69
2023-03-23T04:53:10.325Z,70
2023-03-23T04:55:06.742Z,69
2023-03-23T04:57:08.847Z,69
2023-03-23T04:59:09.635Z,69
2023-03-23T05:01:09.068Z,69
2023-03-23T05:03:07.303Z,69
2023-03-23T05:05:08.881Z,69
2023-03-23T05:07:07.312Z,69
2023-03-23T05:09:07.193Z,68
2023-03-23T05:13:06.804Z,66
2023-03-23T05:15:06.750Z,66
2023-03-23T05:17:13.694Z,66
2023-03-23T05:19:06.720Z,66
2023-03-23T05:21:10.493Z,65
2023-03-23T05:23:06.714Z,65
2023-03-23T05:25:09.305Z,66
2023-03-23T05:27:06.792Z,64
2023-03-23T05:29:06.700Z,64
2023-03-23T05:31:06.731Z,64
2023-03-23T05:33:06.777Z,64
2023-03-23T05:35:06.693Z,64
2023-03-23T05:37:06.869Z,64
2023-03-23T05:39:06.736Z,66
2023-03-23T05:41:10.345Z,65
2023-03-23T05:43:10.129Z,66
2023-03-23T05:45:08.815Z,67
2023-03-23T05:47:10.700Z,66
2023-03-23T05:49:09.876Z,66
2023-03-23T05:51:09.729Z,66
2023-03-23T05:55:06.700Z,66
2023-03-23T05:59:06.741Z,67
2023-03-23T06:01:06.753Z,66
2023-03-23T06:03:07.255Z,67
2023-03-23T06:05:07.014Z,67
2023-03-23T06:07:10.423Z,68
2023-03-23T06:09:07.290Z,69
2023-03-23T06:11:06.729Z,69
2023-03-23T06:15:06.786Z,70
2023-03-23T06:19:06.715Z,70
2023-03-23T06:23:06.753Z,70
2023-03-23T06:25:06.993Z,70
2023-03-23T06:27:07.146Z,70
2023-03-23T06:29:10.418Z,71
2023-03-23T06:31:07.270Z,70
2023-03-23T06:33:06.764Z,70
2023-03-23T06:35:06.733Z,71
2023-03-23T06:37:06.704Z,70
2023-03-23T06:39:07.273Z,70
2023-03-23T06:41:06.723Z,70
2023-03-23T06:43:06.803Z,70
2023-03-23T06:45:06.838Z,70
2023-03-23T06:47:07.273Z,70
2023-03-23T06:49:06.726Z,70
2023-03-23T06:51:06.570Z,71
2023-03-23T06:53:06.740Z,70
2023-03-23T06:55:10.813Z,70
2023-03-23T06:57:07.102Z,70
2023-03-23T06:59:07.508Z,70
2023-03-23T07:03:07.308Z,70
2023-03-23T07:07:06.644Z,69
2023-03-23T07:09:07.297Z,70
2023-03-23T07:11:08.797Z,69
2023-03-23T07:13:06.812Z,69
2023-03-23T07:15:08.424Z,68
2023-03-23T07:17:06.750Z,68
2023-03-23T07:19:06.729Z,69
2023-03-23T07:21:07.329Z,68
2023-03-23T07:23:07.225Z,71
2023-03-23T07:25:06.741Z,76
2023-03-23T07:29:09.716Z,70
2023-03-23T07:31:06.767Z,69
2023-03-23T07:33:06.757Z,73
2023-03-23T07:35:07.217Z,70
2023-03-23T07:37:06.769Z,68
2023-03-23T07:39:10.202Z,69
2023-03-23T07:41:07.765Z,73
2023-03-23T07:43:06.730Z,69
2023-03-23T07:45:13.379Z,71
2023-03-23T07:47:06.726Z,67
2023-03-23T07:49:06.754Z,74
2023-03-23T07:51:10.649Z,72
2023-03-23T07:53:07.362Z,67
2023-03-23T07:55:06.767Z,72
2023-03-23T07:59:06.828Z,70
2023-03-23T08:01:06.797Z,65
2023-03-23T08:03:10.474Z,65
2023-03-23T08:05:07.122Z,69
2023-03-23T08:07:06.773Z,64
2023-03-23T08:09:06.849Z,63
2023-03-23T08:11:07.290Z,65
2023-03-23T08:13:12.222Z,63
2023-03-23T08:15:10.445Z,68
2023-03-23T08:17:06.748Z,66
2023-03-23T08:19:08.308Z,64
2023-03-23T08:23:06.823Z,61
2023-03-23T08:25:13.960Z,65
2023-03-23T08:27:06.781Z,61
2023-03-23T08:29:06.786Z,60
2023-03-23T08:31:06.786Z,61
2023-03-23T08:33:06.855Z,61
2023-03-23T08:37:07.545Z,60
2023-03-23T08:39:07.362Z,61
2023-03-23T08:41:10.437Z,60
2023-03-23T08:43:06.752Z,61
2023-03-23T08:45:06.816Z,61
2023-03-23T08:47:06.814Z,62
2023-03-23T08:49:06.763Z,61
2023-03-23T08:51:06.810Z,62
2023-03-23T08:53:05.260Z,61
2023-03-23T08:57:05.283Z,59
2023-03-23T08:59:06.829Z,60
2023-03-23T09:01:06.783Z,59
2023-03-23T09:03:06.777Z,60
2023-03-23T09:05:06.822Z,60
2023-03-23T09:07:13.358Z,60
2023-03-23T09:09:10.569Z,58
2023-03-23T09:11:06.773Z,58
2023-03-23T09:13:06.726Z,58
2023-03-23T09:15:06.776Z,59
2023-03-23T09:17:06.773Z,58
2023-03-23T09:19:06.765Z,60
2023-03-23T09:21:06.823Z,59
2023-03-23T09:23:10.453Z,58
2023-03-23T09:25:07.346Z,58
2023-03-23T09:27:06.840Z,59
2023-03-23T09:29:08.308Z,60
2023-03-23T09:31:06.729Z,59
2023-03-23T09:33:13.123Z,58
2023-03-23T09:35:06.725Z,61
2023-03-23T09:37:06.779Z,59
2023-03-23T09:39:06.826Z,59
2023-03-23T09:41:10.476Z,61
2023-03-23T09:43:06.769Z,59
2023-03-23T09:45:06.793Z,59
2023-03-23T09:47:06.794Z,60
2023-03-23T09:49:06.764Z,59
2023-03-23T09:51:06.834Z,59
2023-03-23T09:53:06.772Z,60
2023-03-23T09:55:10.311Z,60
2023-03-23T09:57:06.795Z,59
2023-03-23T09:59:06.773Z,59
2023-03-23T10:01:06.781Z,59
2023-03-23T10:03:10.136Z,59
2023-03-23T10:05:10.513Z,58
2023-03-23T10:07:07.043Z,60
2023-03-23T10:09:06.772Z,60
2023-03-23T10:13:06.718Z,60
2023-03-23T10:15:06.908Z,60
2023-03-23T10:17:11.166Z,59
2023-03-23T10:19:06.777Z,58
2023-03-23T10:21:06.854Z,58
2023-03-23T10:23:10.195Z,59
2023-03-23T10:25:06.793Z,60
2023-03-23T10:27:06.844Z,59
2023-03-23T10:29:06.785Z,59
2023-03-23T10:31:10.504Z,58
2023-03-23T10:33:07.718Z,59
2023-03-23T10:35:08.628Z,59
2023-03-23T10:37:10.674Z,59
2023-03-23T10:39:13.627Z,60
2023-03-23T10:41:06.775Z,59
2023-03-23T10:43:06.788Z,61
2023-03-23T10:45:06.853Z,60
2023-03-23T10:47:06.818Z,60
2023-03-23T10:49:08.322Z,61
2023-03-23T10:51:10.504Z,58
2023-03-23T10:53:08.849Z,59
2023-03-23T10:55:06.760Z,61
2023-03-23T10:57:06.825Z,59
2023-03-23T10:59:07.522Z,61
2023-03-23T11:01:06.769Z,59
2023-03-23T11:03:13.529Z,59
2023-03-23T11:05:11.862Z,59
2023-03-23T11:07:06.756Z,59
2023-03-23T11:09:10.537Z,61
2023-03-23T11:11:06.730Z,60
2023-03-23T11:13:06.773Z,59
2023-03-23T11:15:06.836Z,60
2023-03-23T11:17:10.414Z,59
2023-03-23T11:19:06.807Z,62
2023-03-23T11:21:09.994Z,60
2023-03-23T11:25:12.991Z,60
2023-03-23T11:27:10.435Z,62
2023-03-23T11:29:06.751Z,60
2023-03-23T11:31:06.897Z,61
2023-03-23T11:33:06.833Z,61
2023-03-23T11:35:16.079Z,62
2023-03-23T11:37:10.475Z,61
2023-03-23T11:39:04.306Z,62
2023-03-23T11:41:06.786Z,63
2023-03-23T11:43:06.903Z,61
2023-03-23T11:45:12.983Z,60
2023-03-23T11:47:06.808Z,60
2023-03-23T11:49:12.865Z,61
2023-03-23T11:51:06.806Z,60
2023-03-23T11:55:10.589Z,60
2023-03-23T11:57:06.772Z,59
2023-03-23T11:59:10.444Z,60
2023-03-23T12:01:10.491Z,59
2023-03-23T12:03:06.771Z,59
2023-03-23T12:05:06.783Z,59
2023-03-23T12:07:06.789Z,60
2023-03-23T12:09:13.512Z,62
2023-03-23T12:11:07.124Z,60
2023-03-23T12:17:06.716Z,60
2023-03-23T12:19:06.848Z,59
2023-03-23T12:21:07.066Z,60
2023-03-23T12:23:08.322Z,59
2023-03-23T12:25:10.368Z,60
2023-03-23T12:27:10.237Z,59
2023-03-23T12:29:13.553Z,59
2023-03-23T12:31:06.800Z,59
2023-03-23T12:33:06.770Z,59
2023-03-23T12:35:10.506Z,60
2023-03-23T12:37:06.758Z,61
2023-03-23T12:39:12.601Z,59
2023-03-23T12:43:06.778Z,60
2023-03-23T12:45:06.820Z,60
2023-03-23T12:47:06.779Z,61
2023-03-23T12:49:06.816Z,62
2023-03-23T12:51:06.930Z,63
2023-03-23T12:53:06.784Z,62
2023-03-23T12:59:06.557Z,62
2023-03-23T13:01:10.447Z,61
2023-03-23T13:03:06.936Z,61
2023-03-23T13:05:10.434Z,63
2023-03-23T13:09:07.586Z,61
2023-03-23T13:11:05.291Z,61
2023-03-23T13:13:06.771Z,65
2023-03-23T13:15:04.175Z,62
2023-03-23T13:17:06.848Z,61
2023-03-23T13:19:06.798Z,62
2023-03-23T13:21:10.441Z,64
2023-03-23T13:23:06.776Z,62
2023-03-23T13:25:13.111Z,62
2023-03-23T13:27:06.818Z,62
2023-03-23T13:29:06.743Z,61
2023-03-23T13:31:06.796Z,61
2023-03-23T13:33:06.819Z,61
2023-03-23T13:35:06.786Z,62
2023-03-23T13:37:06.772Z,61
2023-03-23T13:39:06.606Z,61
2023-03-23T13:41:06.827Z,60
2023-03-23T13:43:06.818Z,60
2023-03-23T13:45:08.542Z,61
2023-03-23T13:47:06.775Z,60
2023-03-23T13:49:14.518Z,59
2023-03-23T13:53:06.822Z,59
2023-03-23T13:55:06.592Z,59
2023-03-23T13:57:06.840Z,60
2023-03-23T13:59:06.793Z,59
2023-03-23T14:01:10.426Z,60
2023-03-23T14:03:10.456Z,61
2023-03-23T14:05:06.834Z,61
2023-03-23T14:07:06.789Z,61
2023-03-23T14:09:06.891Z,62
2023-03-23T14:11:06.890Z,62
2023-03-23T14:13:06.778Z,60
2023-03-23T14:15:07.328Z,62
2023-03-23T14:19:06.823Z,61
2023-03-23T14:21:07.637Z,59
2023-03-23T14:23:10.477Z,61
2023-03-23T14:25:06.765Z,65
2023-03-23T14:27:06.869Z,63
2023-03-23T14:29:06.776Z,61
2023-03-23T14:33:10.536Z,59
2023-03-23T14:37:10.448Z,63
2023-03-23T14:39:06.844Z,65
2023-03-23T14:41:06.840Z,62
2023-03-23T14:43:06.887Z,61
2023-03-23T14:45:06.828Z,64
2023-03-23T14:49:06.844Z,62
2023-03-23T14:51:06.866Z,60
2023-03-23T14:53:06.888Z,62
2023-03-23T14:57:06.818Z,64
2023-03-23T14:59:08.420Z,63
2023-03-23T15:01:09.902Z,64
2023-03-23T15:03:07.837Z,65
2023-03-23T15:05:09.989Z,63
2023-03-23T15:07:08.843Z,65
2023-03-23T15:09:07.569Z,61
2023-03-23T15:11:06.744Z,66
2023-03-23T15:13:06.805Z,65
2023-03-23T15:15:06.853Z,62
2023-03-23T15:17:06.775Z,62
2023-03-23T15:19:06.768Z,62
2023-03-23T15:21:06.814Z,61
2023-03-23T15:23:06.781Z,62
2023-03-23T15:25:06.789Z,62
2023-03-23T15:29:06.747Z,62
2023-03-23T15:31:06.802Z,61
2023-03-23T15:33:12.517Z,62
2023-03-23T15:35:12.594Z,61
2023-03-23T15:37:11.766Z,65
2023-03-23T15:39:06.791Z,62
2023-03-23T15:41:12.380Z,64
2023-03-23T15:43:10.772Z,62
2023-03-23T15:45:06.836Z,66
2023-03-23T15:47:12.175Z,63
2023-03-23T15:49:06.816Z,62
2023-03-23T15:51:12.770Z,64
2023-03-23T15:53:06.751Z,62
2023-03-23T15:55:10.592Z,63
2023-03-23T15:57:06.844Z,62
2023-03-23T15:59:06.811Z,62
2023-03-23T16:01:11.997Z,62
2023-03-23T16:03:06.854Z,62
2023-03-23T16:05:06.788Z,64
2023-03-23T16:07:06.814Z,64
2023-03-23T16:11:06.791Z,61
2023-03-23T16:13:10.158Z,62
2023-03-23T16:15:09.988Z,62
2023-03-23T16:17:06.824Z,63
2023-03-23T16:19:08.408Z,62
2023-03-23T16:21:06.792Z,62
2023-03-23T16:25:06.802Z,63
2023-03-23T16:27:12.977Z,64
2023-03-23T16:29:17.139Z,63
2023-03-23T16:31:10.522Z,62
2023-03-23T16:33:06.813Z,62
2023-03-23T16:35:06.823Z,63
2023-03-23T16:37:10.475Z,62
2023-03-23T16:39:06.841Z,62
2023-03-23T16:41:11.570Z,63
2023-03-23T16:43:08.686Z,63
2023-03-23T16:45:06.857Z,62
2023-03-23T16:47:12.621Z,64
2023-03-23T16:49:09.803Z,62
2023-03-23T16:51:06.808Z,62
2023-03-23T16:53:06.777Z,63
2023-03-23T17:01:06.780Z,62
2023-03-23T17:03:13.677Z,64
2023-03-23T17:05:06.809Z,62
2023-03-23T17:07:06.773Z,63
2023-03-23T17:09:10.593Z,63
2023-03-23T17:11:10.731Z,63
2023-03-23T17:13:06.784Z,63
2023-03-23T17:15:06.612Z,62
2023-03-23T17:17:09.116Z,63
2023-03-23T17:19:06.808Z,63
2023-03-23T17:21:06.846Z,63
2023-03-23T17:23:06.782Z,63
2023-03-23T17:25:10.636Z,63
2023-03-23T17:27:06.843Z,64
2023-03-23T17:29:10.290Z,64
2023-03-23T17:31:06.843Z,65
2023-03-23T17:33:06.820Z,64
2023-03-23T17:35:06.773Z,65
2023-03-23T17:37:06.778Z,64
2023-03-23T17:39:12.094Z,65
2023-03-23T17:41:06.828Z,65
2023-03-23T17:45:06.883Z,65
2023-03-23T17:47:10.560Z,66
2023-03-23T17:49:06.795Z,66
2023-03-23T17:51:05.331Z,66
2023-03-23T17:53:06.770Z,66
2023-03-23T17:55:07.018Z,66
2023-03-23T17:57:06.904Z,66
2023-03-23T17:59:11.021Z,66
2023-03-23T18:01:10.556Z,66
2023-03-23T18:03:06.866Z,67
2023-03-23T18:05:10.047Z,67
2023-03-23T18:09:06.863Z,67
2023-03-23T18:11:06.830Z,67
2023-03-23T18:13:06.815Z,67
2023-03-23T18:15:06.832Z,67
2023-03-23T18:17:06.823Z,67
2023-03-23T18:19:06.651Z,67
2023-03-23T18:21:06.841Z,68
2023-03-23T18:23:06.788Z,67
2023-03-23T18:25:06.939Z,68
2023-03-23T18:27:06.808Z,68
2023-03-23T18:29:09.761Z,67
2023-03-23T18:31:06.792Z,68
2023-03-23T18:33:06.855Z,68
2023-03-23T18:35:06.776Z,68
2023-03-23T18:37:06.783Z,68
2023-03-23T18:39:06.815Z,69
2023-03-23T18:41:07.565Z,69
2023-03-23T18:43:06.784Z,68
2023-03-23T18:45:06.878Z,69
2023-03-23T18:47:06.803Z,68
2023-03-23T18:51:06.861Z,69
2023-03-23T18:53:06.834Z,69
2023-03-23T18:55:10.944Z,69
2023-03-23T18:57:06.937Z,70
2023-03-23T18:59:10.549Z,70
2023-03-23T19:01:06.807Z,70
2023-03-23T19:03:06.889Z,70
2023-03-23T19:07:06.796Z,70
2023-03-23T19:09:06.858Z,70
2023-03-23T19:11:06.819Z,70
2023-03-23T19:13:13.548Z,71
2023-03-23T19:15:06.861Z,71
2023-03-23T19:17:06.811Z,71
2023-03-23T19:19:06.817Z,72
2023-03-23T19:23:07.106Z,72
2023-03-23T19:25:06.803Z,72
2023-03-23T19:27:06.861Z,72
2023-03-23T19:31:10.511Z,73
2023-03-23T19:33:06.876Z,72
2023-03-23T19:35:10.206Z,73
2023-03-23T19:39:06.841Z,73
2023-03-23T19:41:13.910Z,74
2023-03-23T19:43:06.829Z,74
2023-03-23T19:45:06.845Z,73
2023-03-23T19:47:07.867Z,73
2023-03-23T19:49:07.582Z,73
2023-03-23T19:53:12.154Z,73
2023-03-23T19:55:06.842Z,73
2023-03-23T19:57:06.905Z,72
2023-03-23T19:59:11.238Z,72
2023-03-23T20:01:08.878Z,72
2023-03-23T20:03:06.872Z,72
2023-03-23T20:05:11.131Z,72
2023-03-23T20:07:08.461Z,72
2023-03-23T20:09:09.029Z,71
2023-03-23T20:11:07.047Z,71
2023-03-23T20:13:06.815Z,70
2023-03-23T20:15:06.963Z,70
2023-03-23T20:17:06.850Z,71
2023-03-23T20:21:06.926Z,70
2023-03-23T20:23:11.407Z,70
2023-03-23T20:25:06.811Z,70
2023-03-23T20:27:08.043Z,69
2023-03-23T20:29:08.927Z,70
2023-03-23T20:31:16.625Z,69
2023-03-23T20:33:06.895Z,69
2023-03-23T20:35:10.590Z,70
2023-03-23T20:37:06.790Z,70
2023-03-23T20:39:06.869Z,70
2023-03-23T20:41:06.867Z,70
2023-03-23T20:43:07.000Z,70
2023-03-23T20:45:06.905Z,70
2023-03-23T20:47:06.914Z,70
2023-03-23T20:49:06.844Z,70
2023-03-23T20:51:08.528Z,70
2023-03-23T20:53:07.159Z,70
2023-03-23T20:55:06.864Z,70
2023-03-23T20:57:06.945Z,70
2023-03-23T20:59:06.861Z,70
2023-03-23T21:01:10.029Z,71
2023-03-23T21:05:06.873Z,71
2023-03-23T21:09:06.876Z,70
2023-03-23T21:11:06.872Z,71
2023-03-23T21:13:06.877Z,71
2023-03-23T21:15:06.920Z,71
2023-03-23T21:17:10.508Z,71
2023-03-23T21:19:06.850Z,71
2023-03-23T21:21:08.975Z,71
2023-03-23T21:23:06.839Z,70
2023-03-23T21:27:06.870Z,70
2023-03-23T21:29:10.093Z,70
2023-03-23T21:31:06.850Z,69
2023-03-23T21:33:13.629Z,70
2023-03-23T21:35:06.845Z,71
2023-03-23T21:37:09.799Z,70
2023-03-23T21:39:10.096Z,71
2023-03-23T21:41:08.969Z,70
2023-03-23T21:43:06.854Z,71
2023-03-23T21:45:06.864Z,71
2023-03-23T21:47:06.827Z,71
2023-03-23T21:49:06.845Z,71
2023-03-23T21:51:06.894Z,71
2023-03-23T21:53:06.873Z,71
2023-03-23T21:55:06.909Z,72
2023-03-23T21:57:07.979Z,72
2023-03-23T21:59:11.057Z,72
2023-03-23T22:01:06.854Z,73
2023-03-23T22:03:06.930Z,72
2023-03-23T22:05:10.568Z,72
2023-03-23T22:07:06.897Z,72
2023-03-23T22:09:09.896Z,73
2023-03-23T22:11:10.668Z,73
2023-03-23T22:13:06.804Z,72
2023-03-23T22:15:10.463Z,73
2023-03-23T22:17:06.822Z,73
2023-03-23T22:19:06.833Z,73
2023-03-23T22:21:06.827Z,73
2023-03-23T22:25:07.124Z,76
2023-03-23T22:27:06.832Z,75
2023-03-23T22:29:06.830Z,75
2023-03-23T22:31:12.184Z,74
2023-03-23T22:33:06.924Z,74
2023-03-23T22:35:10.769Z,75
2023-03-23T22:37:06.829Z,75
2023-03-23T22:39:06.848Z,77
2023-03-23T22:41:10.486Z,74
2023-03-23T22:43:06.828Z,74
2023-03-23T22:45:09.769Z,73
2023-03-23T22:47:06.818Z,74
2023-03-23T22:49:06.817Z,73
2023-03-23T22:51:06.867Z,73
2023-03-23T22:53:06.828Z,73
2023-03-23T22:55:06.830Z,75
2023-03-23T22:57:11.050Z,73
2023-03-23T22:59:06.841Z,73
2023-03-23T23:01:06.944Z,73
2023-03-23T23:03:07.229Z,73
2023-03-23T23:05:06.839Z,73
2023-03-23T23:07:13.053Z,73
2023-03-23T23:11:06.819Z,74
2023-03-23T23:13:06.820Z,75
2023-03-23T23:15:06.868Z,75
2023-03-23T23:21:06.866Z,76
2023-03-23T23:23:09.809Z,75
2023-03-23T23:25:10.594Z,75
2023-03-23T23:29:10.643Z,74
2023-03-23T23:31:08.987Z,74
2023-03-23T23:33:08.119Z,74
2023-03-23T23:37:06.846Z,74
2023-03-23T23:39:06.868Z,74
2023-03-23T23:41:06.839Z,74
2023-03-23T23:43:06.822Z,75
2023-03-23T23:45:06.914Z,74
2023-03-23T23:47:10.433Z,76
2023-03-23T23:49:09.767Z,75
2023-03-23T23:51:06.918Z,74
2023-03-23T23:53:06.846Z,73
2023-03-23T23:55:13.845Z,74
2023-03-23T23:57:06.914Z,74
2023-03-23T23:59:06.853Z,74
